sensor_id;sensor_type;location;lat;lon;timestamp;P1;durP1;ratioP1;P2;durP2;ratioP2
32172;SDS011;18679;45.190;5.722;2023-04-03T00:01:28;0.60;;;0.50;;
32172;SDS011;18679;45.190;5.722;2023-04-03T00:04:30;0.95;;;0.60;;
32172;SDS011;18679;45.190;5.722;2023-04-03T00:07:31;0.60;;;0.40;;
32172;SDS011;18679;45.190;5.722;2023-04-03T00:10:31;0.90;;;0.50;;
32172;SDS011;18679;45.190;5.722;2023-04-03T00:13:32;1.38;;;0.77;;
32172;SDS011;18679;45.190;5.722;2023-04-03T00:16:34;0.77;;;0.40;;
32172;SDS011;18679;45.190;5.722;2023-04-03T00:19:35;0.85;;;0.50;;
32172;SDS011;18679;45.190;5.722;2023-04-03T00:22:35;0.63;;;0.50;;
32172;SDS011;18679;45.190;5.722;2023-04-03T00:25:36;0.52;;;0.20;;
32172;SDS011;18679;45.190;5.722;2023-04-03T00:28:37;0.50;;;0.40;;
32172;SDS011;18679;45.190;5.722;2023-04-03T00:31:38;0.40;;;0.40;;
32172;SDS011;18679;45.190;5.722;2023-04-03T00:34:39;0.57;;;0.30;;
32172;SDS011;18679;45.190;5.722;2023-04-03T00:37:40;1.02;;;0.40;;
32172;SDS011;18679;45.190;5.722;2023-04-03T00:40:43;1.40;;;0.50;;
32172;SDS011;18679;45.190;5.722;2023-04-03T00:43:46;1.27;;;0.80;;
32172;SDS011;18679;45.190;5.722;2023-04-03T00:46:47;0.40;;;0.40;;
32172;SDS011;18679;45.190;5.722;2023-04-03T00:49:48;0.60;;;0.60;;
32172;SDS011;18679;45.190;5.722;2023-04-03T00:52:50;1.27;;;0.43;;
32172;SDS011;18679;45.190;5.722;2023-04-03T00:55:51;1.05;;;0.40;;
32172;SDS011;18679;45.190;5.722;2023-04-03T00:58:57;0.60;;;0.50;;
32172;SDS011;18679;45.190;5.722;2023-04-03T01:02:11;0.43;;;0.40;;
32172;SDS011;18679;45.190;5.722;2023-04-03T01:05:12;0.30;;;0.30;;
32172;SDS011;18679;45.190;5.722;2023-04-03T01:08:17;1.00;;;0.52;;
32172;SDS011;18679;45.190;5.722;2023-04-03T01:11:18;5.15;;;0.57;;
32172;SDS011;18679;45.190;5.722;2023-04-03T01:14:21;4.65;;;0.70;;
32172;SDS011;18679;45.190;5.722;2023-04-03T01:17:45;0.43;;;0.43;;
32172;SDS011;18679;45.190;5.722;2023-04-03T01:20:49;0.80;;;0.43;;
32172;SDS011;18679;45.190;5.722;2023-04-03T01:27:10;0.55;;;0.43;;
32172;SDS011;18679;45.190;5.722;2023-04-03T01:30:12;0.60;;;0.38;;
32172;SDS011;18679;45.190;5.722;2023-04-03T01:33:16;0.73;;;0.57;;
32172;SDS011;18679;45.190;5.722;2023-04-03T01:36:24;0.40;;;0.40;;
32172;SDS011;18679;45.190;5.722;2023-04-03T01:39:28;0.50;;;0.40;;
32172;SDS011;18679;45.190;5.722;2023-04-03T01:42:29;0.93;;;0.60;;
32172;SDS011;18679;45.190;5.722;2023-04-03T01:45:30;0.40;;;0.40;;
32172;SDS011;18679;45.190;5.722;2023-04-03T01:48:31;0.60;;;0.60;;
32172;SDS011;18679;45.190;5.722;2023-04-03T01:51:32;0.47;;;0.45;;
32172;SDS011;18679;45.190;5.722;2023-04-03T01:54:34;5.55;;;0.52;;
32172;SDS011;18679;45.190;5.722;2023-04-03T01:57:35;0.70;;;0.68;;
32172;SDS011;18679;45.190;5.722;2023-04-03T02:00:36;0.73;;;0.73;;
32172;SDS011;18679;45.190;5.722;2023-04-03T02:03:37;1.17;;;0.90;;
32172;SDS011;18679;45.190;5.722;2023-04-03T02:06:38;1.02;;;0.60;;
32172;SDS011;18679;45.190;5.722;2023-04-03T02:09:39;1.65;;;0.90;;
32172;SDS011;18679;45.190;5.722;2023-04-03T02:12:40;0.63;;;0.50;;
32172;SDS011;18679;45.190;5.722;2023-04-03T02:15:41;1.13;;;0.60;;
32172;SDS011;18679;45.190;5.722;2023-04-03T02:18:42;1.38;;;0.70;;
32172;SDS011;18679;45.190;5.722;2023-04-03T02:21:43;1.17;;;0.88;;
32172;SDS011;18679;45.190;5.722;2023-04-03T02:24:44;1.10;;;0.80;;
32172;SDS011;18679;45.190;5.722;2023-04-03T02:27:45;1.10;;;0.70;;
32172;SDS011;18679;45.190;5.722;2023-04-03T02:30:46;2.60;;;0.80;;
32172;SDS011;18679;45.190;5.722;2023-04-03T02:33:47;1.33;;;0.82;;
32172;SDS011;18679;45.190;5.722;2023-04-03T02:36:49;1.02;;;0.75;;
32172;SDS011;18679;45.190;5.722;2023-04-03T02:39:52;0.93;;;0.80;;
32172;SDS011;18679;45.190;5.722;2023-04-03T02:42:53;0.63;;;0.60;;
32172;SDS011;18679;45.190;5.722;2023-04-03T02:45:56;0.73;;;0.65;;
32172;SDS011;18679;45.190;5.722;2023-04-03T02:48:56;2.58;;;0.90;;
32172;SDS011;18679;45.190;5.722;2023-04-03T02:51:58;1.27;;;0.73;;
32172;SDS011;18679;45.190;5.722;2023-04-03T02:54:58;0.82;;;0.63;;
32172;SDS011;18679;45.190;5.722;2023-04-03T02:58:00;4.35;;;0.90;;
32172;SDS011;18679;45.190;5.722;2023-04-03T03:01:01;0.85;;;0.63;;
32172;SDS011;18679;45.190;5.722;2023-04-03T03:04:02;1.20;;;0.90;;
32172;SDS011;18679;45.190;5.722;2023-04-03T03:07:02;0.93;;;0.70;;
32172;SDS011;18679;45.190;5.722;2023-04-03T03:10:03;0.77;;;0.50;;
32172;SDS011;18679;45.190;5.722;2023-04-03T03:13:04;0.50;;;0.50;;
32172;SDS011;18679;45.190;5.722;2023-04-03T03:16:05;2.67;;;0.57;;
32172;SDS011;18679;45.190;5.722;2023-04-03T03:19:06;0.95;;;0.60;;
32172;SDS011;18679;45.190;5.722;2023-04-03T03:22:07;0.60;;;0.50;;
32172;SDS011;18679;45.190;5.722;2023-04-03T03:25:08;3.22;;;1.13;;
32172;SDS011;18679;45.190;5.722;2023-04-03T03:28:10;1.67;;;0.77;;
32172;SDS011;18679;45.190;5.722;2023-04-03T03:31:12;1.00;;;0.80;;
32172;SDS011;18679;45.190;5.722;2023-04-03T03:34:14;1.23;;;0.70;;
32172;SDS011;18679;45.190;5.722;2023-04-03T03:37:15;1.00;;;0.80;;
32172;SDS011;18679;45.190;5.722;2023-04-03T03:40:16;1.02;;;0.82;;
32172;SDS011;18679;45.190;5.722;2023-04-03T03:43:17;1.38;;;1.00;;
32172;SDS011;18679;45.190;5.722;2023-04-03T03:46:20;1.48;;;1.00;;
32172;SDS011;18679;45.190;5.722;2023-04-03T03:49:21;1.30;;;0.98;;
32172;SDS011;18679;45.190;5.722;2023-04-03T03:52:22;1.00;;;1.00;;
32172;SDS011;18679;45.190;5.722;2023-04-03T03:55:23;1.17;;;0.90;;
32172;SDS011;18679;45.190;5.722;2023-04-03T03:58:27;1.20;;;1.05;;
32172;SDS011;18679;45.190;5.722;2023-04-03T04:01:28;2.42;;;1.15;;
32172;SDS011;18679;45.190;5.722;2023-04-03T04:04:30;1.45;;;1.10;;
32172;SDS011;18679;45.190;5.722;2023-04-03T04:07:30;1.45;;;0.90;;
32172;SDS011;18679;45.190;5.722;2023-04-03T04:10:32;3.83;;;1.20;;
32172;SDS011;18679;45.190;5.722;2023-04-03T04:13:34;3.15;;;1.40;;
32172;SDS011;18679;45.190;5.722;2023-04-03T04:16:35;1.88;;;1.40;;
32172;SDS011;18679;45.190;5.722;2023-04-03T04:19:42;1.98;;;1.63;;
32172;SDS011;18679;45.190;5.722;2023-04-03T04:22:43;2.78;;;1.70;;
32172;SDS011;18679;45.190;5.722;2023-04-03T04:25:45;2.00;;;1.40;;
32172;SDS011;18679;45.190;5.722;2023-04-03T04:28:50;1.92;;;1.50;;
32172;SDS011;18679;45.190;5.722;2023-04-03T04:31:53;3.85;;;1.67;;
32172;SDS011;18679;45.190;5.722;2023-04-03T04:34:55;2.33;;;1.65;;
32172;SDS011;18679;45.190;5.722;2023-04-03T04:37:56;3.72;;;2.08;;
32172;SDS011;18679;45.190;5.722;2023-04-03T04:40:57;4.22;;;1.85;;
32172;SDS011;18679;45.190;5.722;2023-04-03T04:43:58;3.60;;;2.08;;
32172;SDS011;18679;45.190;5.722;2023-04-03T04:47:00;4.30;;;2.40;;
32172;SDS011;18679;45.190;5.722;2023-04-03T04:50:01;3.83;;;1.88;;
32172;SDS011;18679;45.190;5.722;2023-04-03T04:53:02;4.30;;;2.13;;
32172;SDS011;18679;45.190;5.722;2023-04-03T04:56:04;3.78;;;1.75;;
32172;SDS011;18679;45.190;5.722;2023-04-03T04:59:07;2.38;;;1.75;;
32172;SDS011;18679;45.190;5.722;2023-04-03T05:02:08;5.22;;;2.05;;
32172;SDS011;18679;45.190;5.722;2023-04-03T05:05:10;3.38;;;1.90;;
32172;SDS011;18679;45.190;5.722;2023-04-03T05:08:11;2.13;;;1.70;;
32172;SDS011;18679;45.190;5.722;2023-04-03T05:11:14;3.22;;;2.00;;
32172;SDS011;18679;45.190;5.722;2023-04-03T05:14:17;3.22;;;1.77;;
32172;SDS011;18679;45.190;5.722;2023-04-03T05:17:19;2.63;;;1.65;;
32172;SDS011;18679;45.190;5.722;2023-04-03T05:20:24;2.72;;;1.70;;
32172;SDS011;18679;45.190;5.722;2023-04-03T05:23:26;2.65;;;1.83;;
32172;SDS011;18679;45.190;5.722;2023-04-03T05:26:27;3.20;;;1.90;;
32172;SDS011;18679;45.190;5.722;2023-04-03T05:29:30;1.90;;;1.55;;
32172;SDS011;18679;45.190;5.722;2023-04-03T05:32:32;3.42;;;2.00;;
32172;SDS011;18679;45.190;5.722;2023-04-03T05:35:46;2.97;;;2.03;;
32172;SDS011;18679;45.190;5.722;2023-04-03T05:38:52;3.78;;;1.92;;
32172;SDS011;18679;45.190;5.722;2023-04-03T05:41:53;2.80;;;1.60;;
32172;SDS011;18679;45.190;5.722;2023-04-03T05:44:54;2.30;;;1.60;;
32172;SDS011;18679;45.190;5.722;2023-04-03T05:47:55;1.80;;;1.48;;
32172;SDS011;18679;45.190;5.722;2023-04-03T05:50:57;2.92;;;2.10;;
32172;SDS011;18679;45.190;5.722;2023-04-03T05:54:09;3.13;;;2.28;;
32172;SDS011;18679;45.190;5.722;2023-04-03T05:57:23;3.20;;;1.90;;
32172;SDS011;18679;45.190;5.722;2023-04-03T06:00:25;3.00;;;2.00;;
32172;SDS011;18679;45.190;5.722;2023-04-03T06:03:34;3.75;;;2.10;;
32172;SDS011;18679;45.190;5.722;2023-04-03T06:06:52;3.85;;;2.50;;
32172;SDS011;18679;45.190;5.722;2023-04-03T06:09:55;3.67;;;2.40;;
32172;SDS011;18679;45.190;5.722;2023-04-03T06:12:57;15.85;;;2.13;;
32172;SDS011;18679;45.190;5.722;2023-04-03T06:15:58;3.17;;;2.13;;
32172;SDS011;18679;45.190;5.722;2023-04-03T06:18:59;2.75;;;1.98;;
32172;SDS011;18679;45.190;5.722;2023-04-03T06:22:01;3.22;;;1.85;;
32172;SDS011;18679;45.190;5.722;2023-04-03T06:25:04;2.30;;;1.75;;
32172;SDS011;18679;45.190;5.722;2023-04-03T06:28:06;1.30;;;1.13;;
32172;SDS011;18679;45.190;5.722;2023-04-03T06:31:09;2.33;;;1.63;;
32172;SDS011;18679;45.190;5.722;2023-04-03T06:34:10;2.47;;;1.65;;
32172;SDS011;18679;45.190;5.722;2023-04-03T06:37:17;1.65;;;1.20;;
32172;SDS011;18679;45.190;5.722;2023-04-03T06:40:22;2.58;;;1.77;;
32172;SDS011;18679;45.190;5.722;2023-04-03T06:43:24;1.20;;;1.10;;
32172;SDS011;18679;45.190;5.722;2023-04-03T06:46:25;1.35;;;0.80;;
32172;SDS011;18679;45.190;5.722;2023-04-03T06:49:27;1.92;;;0.73;;
32172;SDS011;18679;45.190;5.722;2023-04-03T06:52:29;1.05;;;0.70;;
32172;SDS011;18679;45.190;5.722;2023-04-03T06:55:30;1.20;;;0.98;;
32172;SDS011;18679;45.190;5.722;2023-04-03T06:58:31;1.45;;;1.35;;
32172;SDS011;18679;45.190;5.722;2023-04-03T07:01:32;0.80;;;0.80;;
32172;SDS011;18679;45.190;5.722;2023-04-03T07:04:33;0.93;;;0.80;;
32172;SDS011;18679;45.190;5.722;2023-04-03T07:07:34;1.13;;;0.90;;
32172;SDS011;18679;45.190;5.722;2023-04-03T07:10:37;1.08;;;0.90;;
32172;SDS011;18679;45.190;5.722;2023-04-03T07:13:38;2.05;;;0.85;;
32172;SDS011;18679;45.190;5.722;2023-04-03T07:16:39;0.70;;;0.70;;
32172;SDS011;18679;45.190;5.722;2023-04-03T07:19:40;0.60;;;0.57;;
32172;SDS011;18679;45.190;5.722;2023-04-03T07:22:41;0.82;;;0.60;;
32172;SDS011;18679;45.190;5.722;2023-04-03T07:25:46;0.60;;;0.60;;
32172;SDS011;18679;45.190;5.722;2023-04-03T07:28:48;1.20;;;0.88;;
32172;SDS011;18679;45.190;5.722;2023-04-03T07:31:50;1.80;;;1.10;;
32172;SDS011;18679;45.190;5.722;2023-04-03T07:34:50;0.73;;;0.73;;
32172;SDS011;18679;45.190;5.722;2023-04-03T07:37:51;1.15;;;0.80;;
32172;SDS011;18679;45.190;5.722;2023-04-03T07:40:53;11.15;;;1.13;;
32172;SDS011;18679;45.190;5.722;2023-04-03T07:43:54;0.70;;;0.65;;
32172;SDS011;18679;45.190;5.722;2023-04-03T07:46:56;1.33;;;0.98;;
32172;SDS011;18679;45.190;5.722;2023-04-03T07:49:57;1.13;;;0.95;;
32172;SDS011;18679;45.190;5.722;2023-04-03T07:52:58;1.08;;;0.98;;
32172;SDS011;18679;45.190;5.722;2023-04-03T07:55:59;3.50;;;1.10;;
32172;SDS011;18679;45.190;5.722;2023-04-03T07:59:02;7.55;;;1.50;;
32172;SDS011;18679;45.190;5.722;2023-04-03T08:02:03;2.72;;;1.77;;
32172;SDS011;18679;45.190;5.722;2023-04-03T08:05:05;3.05;;;1.60;;
32172;SDS011;18679;45.190;5.722;2023-04-03T08:08:06;2.30;;;1.60;;
32172;SDS011;18679;45.190;5.722;2023-04-03T08:11:09;4.78;;;1.80;;
32172;SDS011;18679;45.190;5.722;2023-04-03T08:14:11;2.38;;;1.58;;
32172;SDS011;18679;45.190;5.722;2023-04-03T08:17:16;4.25;;;2.08;;
32172;SDS011;18679;45.190;5.722;2023-04-03T08:20:17;1.80;;;1.23;;
32172;SDS011;18679;45.190;5.722;2023-04-03T08:23:18;2.33;;;1.50;;
32172;SDS011;18679;45.190;5.722;2023-04-03T08:26:20;2.45;;;1.70;;
32172;SDS011;18679;45.190;5.722;2023-04-03T08:29:22;4.05;;;1.60;;
32172;SDS011;18679;45.190;5.722;2023-04-03T08:32:23;2.85;;;1.67;;
32172;SDS011;18679;45.190;5.722;2023-04-03T08:35:24;1.80;;;1.63;;
32172;SDS011;18679;45.190;5.722;2023-04-03T08:38:25;2.75;;;1.90;;
32172;SDS011;18679;45.190;5.722;2023-04-03T08:41:33;2.03;;;1.70;;
32172;SDS011;18679;45.190;5.722;2023-04-03T08:51:04;1.90;;;1.50;;
32172;SDS011;18679;45.190;5.722;2023-04-03T08:54:37;2.28;;;1.60;;
32172;SDS011;18679;45.190;5.722;2023-04-03T09:01:05;2.90;;;2.17;;
32172;SDS011;18679;45.190;5.722;2023-04-03T09:04:22;3.67;;;2.30;;
32172;SDS011;18679;45.190;5.722;2023-04-03T09:07:37;2.47;;;2.13;;
32172;SDS011;18679;45.190;5.722;2023-04-03T09:17:45;3.13;;;2.20;;
32172;SDS011;18679;45.190;5.722;2023-04-03T09:23:55;4.00;;;2.23;;
32172;SDS011;18679;45.190;5.722;2023-04-03T09:27:01;3.53;;;1.88;;
32172;SDS011;18679;45.190;5.722;2023-04-03T09:30:12;2.85;;;1.85;;
32172;SDS011;18679;45.190;5.722;2023-04-03T09:33:15;2.30;;;1.75;;
32172;SDS011;18679;45.190;5.722;2023-04-03T09:36:38;3.38;;;1.88;;
32172;SDS011;18679;45.190;5.722;2023-04-03T09:39:51;3.53;;;2.00;;
32172;SDS011;18679;45.190;5.722;2023-04-03T09:42:55;2.10;;;1.60;;
32172;SDS011;18679;45.190;5.722;2023-04-03T09:49:30;3.42;;;1.80;;
32172;SDS011;18679;45.190;5.722;2023-04-03T09:52:31;3.30;;;1.90;;
32172;SDS011;18679;45.190;5.722;2023-04-03T09:55:32;5.88;;;2.10;;
32172;SDS011;18679;45.190;5.722;2023-04-03T09:58:42;5.97;;;1.70;;
32172;SDS011;18679;45.190;5.722;2023-04-03T10:02:15;2.72;;;1.75;;
32172;SDS011;18679;45.190;5.722;2023-04-03T10:05:27;2.70;;;1.75;;
32172;SDS011;18679;45.190;5.722;2023-04-03T10:08:34;5.13;;;1.98;;
32172;SDS011;18679;45.190;5.722;2023-04-03T10:11:35;3.25;;;1.70;;
32172;SDS011;18679;45.190;5.722;2023-04-03T10:14:37;2.85;;;1.52;;
32172;SDS011;18679;45.190;5.722;2023-04-03T10:20:51;3.03;;;1.80;;
32172;SDS011;18679;45.190;5.722;2023-04-03T10:27:36;2.78;;;2.17;;
32172;SDS011;18679;45.190;5.722;2023-04-03T10:37:34;2.60;;;1.80;;
32172;SDS011;18679;45.190;5.722;2023-04-03T10:40:57;2.38;;;1.60;;
32172;SDS011;18679;45.190;5.722;2023-04-03T10:51:33;2.42;;;1.80;;
32172;SDS011;18679;45.190;5.722;2023-04-03T10:54:53;6.22;;;1.60;;
32172;SDS011;18679;45.190;5.722;2023-04-03T10:58:20;1.88;;;1.20;;
32172;SDS011;18679;45.190;5.722;2023-04-03T11:01:33;2.22;;;1.33;;
32172;SDS011;18679;45.190;5.722;2023-04-03T11:04:39;1.20;;;1.10;;
32172;SDS011;18679;45.190;5.722;2023-04-03T11:07:45;1.67;;;1.35;;
32172;SDS011;18679;45.190;5.722;2023-04-03T11:10:49;3.85;;;1.35;;
32172;SDS011;18679;45.190;5.722;2023-04-03T11:13:56;13.73;;;2.83;;
32172;SDS011;18679;45.190;5.722;2023-04-03T11:23:26;3.70;;;1.67;;
32172;SDS011;18679;45.190;5.722;2023-04-03T11:26:31;2.58;;;1.02;;
32172;SDS011;18679;45.190;5.722;2023-04-03T11:29:39;2.85;;;1.33;;
32172;SDS011;18679;45.190;5.722;2023-04-03T11:33:01;1.08;;;0.90;;
32172;SDS011;18679;45.190;5.722;2023-04-03T11:39:32;5.85;;;1.40;;
32172;SDS011;18679;45.190;5.722;2023-04-03T11:42:36;1.42;;;0.93;;
32172;SDS011;18679;45.190;5.722;2023-04-03T11:48:55;1.30;;;0.98;;
32172;SDS011;18679;45.190;5.722;2023-04-03T11:51:56;1.35;;;0.98;;
32172;SDS011;18679;45.190;5.722;2023-04-03T11:54:57;3.53;;;0.98;;
32172;SDS011;18679;45.190;5.722;2023-04-03T12:01:09;2.10;;;1.17;;
32172;SDS011;18679;45.190;5.722;2023-04-03T12:04:12;1.85;;;1.10;;
32172;SDS011;18679;45.190;5.722;2023-04-03T12:07:18;3.08;;;0.77;;
32172;SDS011;18679;45.190;5.722;2023-04-03T12:10:19;1.50;;;1.05;;
32172;SDS011;18679;45.190;5.722;2023-04-03T12:13:20;2.20;;;1.10;;
32172;SDS011;18679;45.190;5.722;2023-04-03T12:19:38;1.25;;;1.00;;
32172;SDS011;18679;45.190;5.722;2023-04-03T12:23:06;2.20;;;1.20;;
32172;SDS011;18679;45.190;5.722;2023-04-03T12:26:27;1.63;;;1.08;;
32172;SDS011;18679;45.190;5.722;2023-04-03T12:29:46;1.33;;;0.98;;
32172;SDS011;18679;45.190;5.722;2023-04-03T12:36:15;4.38;;;1.05;;
32172;SDS011;18679;45.190;5.722;2023-04-03T12:42:52;1.30;;;0.98;;
32172;SDS011;18679;45.190;5.722;2023-04-03T12:46:17;1.30;;;1.00;;
32172;SDS011;18679;45.190;5.722;2023-04-03T12:52:42;1.73;;;1.08;;
32172;SDS011;18679;45.190;5.722;2023-04-03T12:55:52;1.95;;;1.40;;
32172;SDS011;18679;45.190;5.722;2023-04-03T12:59:18;4.82;;;1.77;;
32172;SDS011;18679;45.190;5.722;2023-04-03T13:05:30;2.67;;;2.05;;
32172;SDS011;18679;45.190;5.722;2023-04-03T13:08:32;4.95;;;2.25;;
32172;SDS011;18679;45.190;5.722;2023-04-03T13:11:35;2.88;;;2.05;;
32172;SDS011;18679;45.190;5.722;2023-04-03T13:14:38;2.17;;;1.70;;
32172;SDS011;18679;45.190;5.722;2023-04-03T13:17:41;2.85;;;1.85;;
32172;SDS011;18679;45.190;5.722;2023-04-03T13:20:43;4.05;;;2.10;;
32172;SDS011;18679;45.190;5.722;2023-04-03T13:23:50;3.80;;;2.25;;
32172;SDS011;18679;45.190;5.722;2023-04-03T13:26:53;4.55;;;2.42;;
32172;SDS011;18679;45.190;5.722;2023-04-03T13:29:54;4.60;;;2.60;;
32172;SDS011;18679;45.190;5.722;2023-04-03T13:33:00;3.55;;;2.30;;
32172;SDS011;18679;45.190;5.722;2023-04-03T13:36:19;3.08;;;2.03;;
32172;SDS011;18679;45.190;5.722;2023-04-03T13:39:24;3.20;;;1.95;;
32172;SDS011;18679;45.190;5.722;2023-04-03T13:45:33;3.10;;;2.28;;
32172;SDS011;18679;45.190;5.722;2023-04-03T13:48:45;2.33;;;1.80;;
32172;SDS011;18679;45.190;5.722;2023-04-03T13:51:48;2.17;;;1.80;;
32172;SDS011;18679;45.190;5.722;2023-04-03T13:54:55;3.38;;;2.03;;
32172;SDS011;18679;45.190;5.722;2023-04-03T13:58:02;3.83;;;2.20;;
32172;SDS011;18679;45.190;5.722;2023-04-03T14:01:22;3.97;;;2.13;;
32172;SDS011;18679;45.190;5.722;2023-04-03T14:04:26;4.32;;;1.85;;
32172;SDS011;18679;45.190;5.722;2023-04-03T14:07:29;4.15;;;2.70;;
32172;SDS011;18679;45.190;5.722;2023-04-03T14:10:34;3.33;;;2.13;;
32172;SDS011;18679;45.190;5.722;2023-04-03T14:13:35;4.63;;;2.50;;
32172;SDS011;18679;45.190;5.722;2023-04-03T14:16:37;3.75;;;2.30;;
32172;SDS011;18679;45.190;5.722;2023-04-03T14:19:40;3.08;;;1.98;;
32172;SDS011;18679;45.190;5.722;2023-04-03T14:22:42;5.30;;;2.55;;
32172;SDS011;18679;45.190;5.722;2023-04-03T14:25:44;3.33;;;2.25;;
32172;SDS011;18679;45.190;5.722;2023-04-03T14:28:46;3.03;;;2.20;;
32172;SDS011;18679;45.190;5.722;2023-04-03T14:31:49;2.50;;;2.08;;
32172;SDS011;18679;45.190;5.722;2023-04-03T14:34:50;4.38;;;2.55;;
32172;SDS011;18679;45.190;5.722;2023-04-03T14:37:52;4.07;;;2.40;;
32172;SDS011;18679;45.190;5.722;2023-04-03T14:40:54;6.78;;;2.08;;
32172;SDS011;18679;45.190;5.722;2023-04-03T14:43:56;4.85;;;2.75;;
32172;SDS011;18679;45.190;5.722;2023-04-03T14:46:57;4.00;;;2.42;;
32172;SDS011;18679;45.190;5.722;2023-04-03T14:49:59;3.40;;;2.28;;
32172;SDS011;18679;45.190;5.722;2023-04-03T14:53:00;5.40;;;2.63;;
32172;SDS011;18679;45.190;5.722;2023-04-03T14:56:01;3.08;;;2.50;;
32172;SDS011;18679;45.190;5.722;2023-04-03T14:59:05;2.70;;;2.20;;
32172;SDS011;18679;45.190;5.722;2023-04-03T15:05:27;3.95;;;2.45;;
32172;SDS011;18679;45.190;5.722;2023-04-03T15:08:28;3.72;;;2.58;;
32172;SDS011;18679;45.190;5.722;2023-04-03T15:11:29;7.15;;;2.55;;
32172;SDS011;18679;45.190;5.722;2023-04-03T15:14:30;3.75;;;2.15;;
32172;SDS011;18679;45.190;5.722;2023-04-03T15:17:31;5.47;;;2.47;;
32172;SDS011;18679;45.190;5.722;2023-04-03T15:20:32;4.63;;;2.25;;
32172;SDS011;18679;45.190;5.722;2023-04-03T15:23:33;5.10;;;2.53;;
32172;SDS011;18679;45.190;5.722;2023-04-03T15:26:34;2.78;;;2.17;;
32172;SDS011;18679;45.190;5.722;2023-04-03T15:29:35;3.70;;;2.25;;
32172;SDS011;18679;45.190;5.722;2023-04-03T15:32:37;5.65;;;2.40;;
32172;SDS011;18679;45.190;5.722;2023-04-03T15:35:37;5.30;;;2.28;;
32172;SDS011;18679;45.190;5.722;2023-04-03T15:38:38;2.97;;;2.08;;
32172;SDS011;18679;45.190;5.722;2023-04-03T15:41:39;3.65;;;1.92;;
32172;SDS011;18679;45.190;5.722;2023-04-03T15:44:40;4.78;;;2.30;;
32172;SDS011;18679;45.190;5.722;2023-04-03T15:47:41;3.85;;;1.98;;
32172;SDS011;18679;45.190;5.722;2023-04-03T15:50:42;3.15;;;2.05;;
32172;SDS011;18679;45.190;5.722;2023-04-03T15:53:43;4.10;;;2.17;;
32172;SDS011;18679;45.190;5.722;2023-04-03T15:56:44;3.92;;;2.20;;
32172;SDS011;18679;45.190;5.722;2023-04-03T15:59:45;3.95;;;2.42;;
32172;SDS011;18679;45.190;5.722;2023-04-03T16:02:46;5.93;;;2.00;;
32172;SDS011;18679;45.190;5.722;2023-04-03T16:05:48;3.50;;;2.25;;
32172;SDS011;18679;45.190;5.722;2023-04-03T16:08:50;2.90;;;1.88;;
32172;SDS011;18679;45.190;5.722;2023-04-03T16:12:17;3.35;;;2.38;;
32172;SDS011;18679;45.190;5.722;2023-04-03T16:15:17;4.75;;;1.98;;
32172;SDS011;18679;45.190;5.722;2023-04-03T16:18:18;5.32;;;2.40;;
32172;SDS011;18679;45.190;5.722;2023-04-03T16:21:20;4.88;;;2.75;;
32172;SDS011;18679;45.190;5.722;2023-04-03T16:24:21;4.35;;;2.10;;
32172;SDS011;18679;45.190;5.722;2023-04-03T16:27:22;3.65;;;2.20;;
32172;SDS011;18679;45.190;5.722;2023-04-03T16:30:28;5.53;;;2.17;;
32172;SDS011;18679;45.190;5.722;2023-04-03T16:33:29;7.45;;;2.50;;
32172;SDS011;18679;45.190;5.722;2023-04-03T16:36:30;4.75;;;2.10;;
32172;SDS011;18679;45.190;5.722;2023-04-03T16:39:31;2.63;;;1.90;;
32172;SDS011;18679;45.190;5.722;2023-04-03T16:42:32;3.10;;;2.40;;
32172;SDS011;18679;45.190;5.722;2023-04-03T16:45:33;2.38;;;1.90;;
32172;SDS011;18679;45.190;5.722;2023-04-03T16:48:34;3.10;;;2.05;;
32172;SDS011;18679;45.190;5.722;2023-04-03T16:51:35;4.13;;;2.10;;
32172;SDS011;18679;45.190;5.722;2023-04-03T16:54:36;3.08;;;2.20;;
32172;SDS011;18679;45.190;5.722;2023-04-03T16:57:37;3.75;;;2.10;;
32172;SDS011;18679;45.190;5.722;2023-04-03T17:00:38;4.88;;;2.03;;
32172;SDS011;18679;45.190;5.722;2023-04-03T17:03:39;5.30;;;2.28;;
32172;SDS011;18679;45.190;5.722;2023-04-03T17:06:40;2.50;;;1.90;;
32172;SDS011;18679;45.190;5.722;2023-04-03T17:09:41;3.08;;;1.63;;
32172;SDS011;18679;45.190;5.722;2023-04-03T17:12:42;3.67;;;2.00;;
32172;SDS011;18679;45.190;5.722;2023-04-03T17:15:42;1.60;;;1.40;;
32172;SDS011;18679;45.190;5.722;2023-04-03T17:18:43;4.30;;;1.70;;
32172;SDS011;18679;45.190;5.722;2023-04-03T17:21:45;4.72;;;1.77;;
32172;SDS011;18679;45.190;5.722;2023-04-03T17:24:46;3.08;;;1.67;;
32172;SDS011;18679;45.190;5.722;2023-04-03T17:27:47;2.92;;;1.73;;
32172;SDS011;18679;45.190;5.722;2023-04-03T17:30:48;1.75;;;1.40;;
32172;SDS011;18679;45.190;5.722;2023-04-03T17:33:49;2.60;;;1.20;;
32172;SDS011;18679;45.190;5.722;2023-04-03T17:36:50;1.48;;;1.13;;
32172;SDS011;18679;45.190;5.722;2023-04-03T17:39:50;3.20;;;1.50;;
32172;SDS011;18679;45.190;5.722;2023-04-03T17:42:51;1.20;;;1.05;;
32172;SDS011;18679;45.190;5.722;2023-04-03T17:45:52;2.17;;;1.10;;
32172;SDS011;18679;45.190;5.722;2023-04-03T17:49:02;1.90;;;0.90;;
32172;SDS011;18679;45.190;5.722;2023-04-03T17:52:04;4.38;;;1.30;;
32172;SDS011;18679;45.190;5.722;2023-04-03T17:55:05;1.33;;;1.00;;
32172;SDS011;18679;45.190;5.722;2023-04-03T17:58:06;1.83;;;0.90;;
32172;SDS011;18679;45.190;5.722;2023-04-03T18:04:18;1.23;;;0.95;;
32172;SDS011;18679;45.190;5.722;2023-04-03T18:07:19;2.05;;;1.50;;
32172;SDS011;18679;45.190;5.722;2023-04-03T18:10:20;1.75;;;1.25;;
32172;SDS011;18679;45.190;5.722;2023-04-03T18:13:21;2.25;;;1.25;;
32172;SDS011;18679;45.190;5.722;2023-04-03T18:16:22;2.53;;;1.30;;
32172;SDS011;18679;45.190;5.722;2023-04-03T18:19:23;2.20;;;1.40;;
32172;SDS011;18679;45.190;5.722;2023-04-03T18:22:25;1.88;;;1.17;;
32172;SDS011;18679;45.190;5.722;2023-04-03T18:25:26;2.13;;;1.08;;
32172;SDS011;18679;45.190;5.722;2023-04-03T18:28:27;3.65;;;1.40;;
32172;SDS011;18679;45.190;5.722;2023-04-03T18:31:31;1.73;;;1.20;;
32172;SDS011;18679;45.190;5.722;2023-04-03T18:34:34;3.92;;;1.40;;
32172;SDS011;18679;45.190;5.722;2023-04-03T18:37:35;2.25;;;1.30;;
32172;SDS011;18679;45.190;5.722;2023-04-03T18:40:36;1.25;;;1.05;;
32172;SDS011;18679;45.190;5.722;2023-04-03T18:43:37;1.67;;;1.30;;
32172;SDS011;18679;45.190;5.722;2023-04-03T18:46:38;4.32;;;1.27;;
32172;SDS011;18679;45.190;5.722;2023-04-03T18:49:39;1.75;;;1.20;;
32172;SDS011;18679;45.190;5.722;2023-04-03T18:52:41;2.47;;;1.23;;
32172;SDS011;18679;45.190;5.722;2023-04-03T18:55:42;2.08;;;1.33;;
32172;SDS011;18679;45.190;5.722;2023-04-03T18:58:44;1.27;;;0.93;;
32172;SDS011;18679;45.190;5.722;2023-04-03T19:01:45;2.10;;;1.20;;
32172;SDS011;18679;45.190;5.722;2023-04-03T19:04:46;3.28;;;1.13;;
32172;SDS011;18679;45.190;5.722;2023-04-03T19:07:47;4.55;;;1.38;;
32172;SDS011;18679;45.190;5.722;2023-04-03T19:10:49;5.15;;;1.60;;
32172;SDS011;18679;45.190;5.722;2023-04-03T19:13:50;5.20;;;1.40;;
32172;SDS011;18679;45.190;5.722;2023-04-03T19:16:51;1.95;;;1.33;;
32172;SDS011;18679;45.190;5.722;2023-04-03T19:19:51;4.13;;;1.45;;
32172;SDS011;18679;45.190;5.722;2023-04-03T19:22:52;2.00;;;1.23;;
32172;SDS011;18679;45.190;5.722;2023-04-03T19:25:58;1.52;;;1.15;;
32172;SDS011;18679;45.190;5.722;2023-04-03T19:28:59;3.40;;;1.50;;
32172;SDS011;18679;45.190;5.722;2023-04-03T19:31:59;3.30;;;1.20;;
32172;SDS011;18679;45.190;5.722;2023-04-03T19:35:00;2.65;;;1.40;;
32172;SDS011;18679;45.190;5.722;2023-04-03T19:38:01;1.85;;;1.05;;
32172;SDS011;18679;45.190;5.722;2023-04-03T19:41:03;3.10;;;1.30;;
32172;SDS011;18679;45.190;5.722;2023-04-03T19:44:06;2.25;;;1.17;;
32172;SDS011;18679;45.190;5.722;2023-04-03T19:47:07;1.10;;;0.90;;
32172;SDS011;18679;45.190;5.722;2023-04-03T19:50:10;2.88;;;1.58;;
32172;SDS011;18679;45.190;5.722;2023-04-03T19:53:11;2.00;;;1.33;;
32172;SDS011;18679;45.190;5.722;2023-04-03T19:56:17;1.70;;;1.10;;